Time;durP1;ratioP1;P1;durP2;ratioP2;P2;SDS_P1;SDS_P2;PMS_P1;PMS_P2;Temp;Humidity;BMP_temperature;BMP_pressure;BME280_temperature;BME280_humidity;BME280_pressure;Samples;Min_cycle;Max_cycle;Signal;HPM_P1;HPM_P2
2021/10/15 00:01:51;;;;;;;3.73;2.47;;;18.40;75.20;;;;;;10493319;28;20220;-67
2021/10/15 00:07:15;;;;;;;2.87;2.20;;;18.40;75.20;;;;;;10496393;28;20216;-67
2021/10/15 00:12:37;;;;;;;4.77;2.50;;;18.40;75.20;;;;;;10495002;28;20832;-68
2021/10/15 00:17:59;;;;;;;3.07;2.30;;;18.30;75.20;;;;;;10494094;28;20212;-67
2021/10/15 00:23:23;;;;;;;4.03;2.17;;;18.40;75.30;;;;;;10495870;28;20538;-68
2021/10/15 00:28:45;;;;;;;2.53;2.33;;;18.30;75.20;;;;;;10496986;28;20224;-68
2021/10/15 00:34:07;;;;;;;2.80;2.03;;;18.30;75.20;;;;;;10497251;28;20204;-68
2021/10/15 00:39:30;;;;;;;2.70;2.40;;;18.30;75.20;;;;;;10496487;28;20216;-67
2021/10/15 00:44:53;;;;;;;2.63;2.40;;;18.30;75.20;;;;;;10497343;28;20219;-67
2021/10/15 00:50:15;;;;;;;2.40;2.20;;;18.30;75.20;;;;;;10500515;22;20224;-65
2021/10/15 00:55:39;;;;;;;3.47;2.43;;;18.40;75.30;;;;;;10494658;28;20565;-65
2021/10/15 01:01:01;;;;;;;3.40;2.30;;;18.30;75.20;;;;;;10522883;28;20216;-65
2021/10/15 01:06:23;;;;;;;2.07;1.87;;;18.30;75.20;;;;;;10536415;28;20220;-64
2021/10/15 01:11:47;;;;;;;2.70;2.20;;;18.30;75.20;;;;;;10535084;28;20589;-65
2021/10/15 01:17:09;;;;;;;2.47;2.23;;;18.30;75.30;;;;;;10532281;28;20826;-66
2021/10/15 01:22:33;;;;;;;2.50;1.97;;;18.30;75.30;;;;;;10534001;28;20196;-66
2021/10/15 01:27:55;;;;;;;2.47;2.27;;;18.30;75.30;;;;;;10535013;28;20223;-66
2021/10/15 01:33:17;;;;;;;3.17;2.07;;;18.40;75.40;;;;;;10535441;28;20206;-65
2021/10/15 01:38:41;;;;;;;4.53;2.23;;;18.30;75.30;;;;;;10534480;28;20219;-65
2021/10/15 01:44:03;;;;;;;2.30;2.10;;;18.30;75.20;;;;;;10534970;28;20593;-66
2021/10/15 01:49:25;;;;;;;2.47;2.10;;;18.30;75.20;;;;;;10532928;28;20216;-65
2021/10/15 01:54:49;;;;;;;2.30;2.10;;;18.30;75.20;;;;;;10534602;28;20190;-66
2021/10/15 02:00:13;;;;;;;2.40;1.83;;;18.30;75.20;;;;;;10530342;28;20215;-65
2021/10/15 02:05:36;;;;;;;2.23;1.93;;;18.30;75.30;;;;;;10527775;28;20218;-65
2021/10/15 02:11:00;;;;;;;2.80;2.20;;;18.30;75.30;;;;;;10533501;28;20212;-65
2021/10/15 02:16:22;;;;;;;2.17;1.90;;;18.30;75.30;;;;;;10533732;28;20214;-66
2021/10/15 02:21:44;;;;;;;2.27;2.07;;;18.30;75.30;;;;;;10532672;28;20215;-65
2021/10/15 02:27:08;;;;;;;2.67;1.90;;;18.30;75.30;;;;;;10533179;28;20216;-65
2021/10/15 02:32:30;;;;;;;3.93;2.30;;;18.30;75.30;;;;;;10533152;28;20210;-66
2021/10/15 02:37:52;;;;;;;3.20;1.83;;;18.30;75.80;;;;;;10532638;28;20219;-66
2021/10/15 02:43:15;;;;;;;2.33;1.97;;;18.30;75.20;;;;;;10532723;28;20200;-65
2021/10/15 02:48:37;;;;;;;3.27;1.87;;;18.30;75.20;;;;;;10525385;28;20219;-65
2021/10/15 02:54:00;;;;;;;1.80;1.70;;;18.30;75.20;;;;;;10532184;28;20199;-65
2021/10/15 02:59:23;;;;;;;2.20;1.83;;;18.30;75.20;;;;;;10528877;28;20219;-64
2021/10/15 03:04:45;;;;;;;2.30;2.07;;;18.30;75.20;;;;;;10532650;28;20191;-65
2021/10/15 03:10:09;;;;;;;2.97;2.00;;;18.30;75.20;;;;;;10531665;28;20207;-65
2021/10/15 03:15:33;;;;;;;2.00;1.67;;;18.30;75.30;;;;;;10532369;28;20270;-66
2021/10/15 03:20:55;;;;;;;3.00;1.90;;;18.20;75.20;;;;;;10537438;28;20223;-65
2021/10/15 03:26:17;;;;;;;1.93;1.60;;;18.20;75.20;;;;;;10541661;28;20702;-65
2021/10/15 03:31:40;;;;;;;2.60;1.80;;;18.20;75.10;;;;;;10540453;28;20224;-64
2021/10/15 03:37:02;;;;;;;1.90;1.67;;;18.30;75.20;;;;;;10540574;28;20196;-65
2021/10/15 03:42:25;;;;;;;2.40;1.73;;;18.30;75.20;;;;;;10539308;28;20226;-65
2021/10/15 03:47:49;;;;;;;2.87;1.90;;;18.30;75.10;;;;;;10540022;28;20227;-65
2021/10/15 03:53:11;;;;;;;2.10;1.90;;;18.40;75.00;;;;;;10539084;28;20592;-65
2021/10/15 03:58:33;;;;;;;2.03;1.63;;;18.40;74.90;;;;;;10534556;28;20216;-65
2021/10/15 04:03:56;;;;;;;1.37;1.27;;;18.40;74.80;;;;;;10537676;28;20661;-65
2021/10/15 04:09:18;;;;;;;1.70;1.60;;;18.40;74.80;;;;;;10527041;28;20227;-65
2021/10/15 04:14:41;;;;;;;1.90;1.47;;;18.40;74.80;;;;;;10533879;28;20196;-64
2021/10/15 04:20:06;;;;;;;2.47;1.50;;;18.50;74.80;;;;;;10491859;28;20212;-65
2021/10/15 04:25:28;;;;;;;2.43;1.50;;;18.50;74.80;;;;;;10528519;28;20711;-65
2021/10/15 04:30:50;;;;;;;2.10;1.30;;;18.50;74.60;;;;;;10531197;28;20231;-65
2021/10/15 04:36:14;;;;;;;1.57;1.47;;;18.50;74.60;;;;;;10532073;28;20760;-65
2021/10/15 04:41:36;;;;;;;2.57;1.43;;;18.50;74.60;;;;;;10530138;28;20223;-65
2021/10/15 04:46:58;;;;;;;3.30;1.77;;;18.50;74.50;;;;;;10530527;28;20222;-66
2021/10/15 04:52:21;;;;;;;1.50;1.30;;;18.50;74.50;;;;;;10530921;28;20238;-66
2021/10/15 04:57:43;;;;;;;2.00;1.43;;;18.50;74.60;;;;;;10524781;28;20195;-65
2021/10/15 05:03:06;;;;;;;1.70;1.30;;;18.50;74.50;;;;;;10534661;28;20202;-66
2021/10/15 05:08:31;;;;;;;2.73;1.50;;;18.50;74.60;;;;;;10536336;28;20613;-66
2021/10/15 05:13:53;;;;;;;1.97;1.60;;;18.50;74.50;;;;;;10536191;28;20211;-66
2021/10/15 05:19:15;;;;;;;1.83;1.40;;;18.50;74.50;;;;;;10531116;28;20207;-62
2021/10/15 05:24:39;;;;;;;1.53;1.20;;;18.50;74.50;;;;;;10535537;28;20192;-65
2021/10/15 05:30:01;;;;;;;2.20;1.40;;;18.60;74.60;;;;;;10534338;28;20211;-64
2021/10/15 05:35:23;;;;;;;1.70;1.20;;;18.50;74.50;;;;;;10535983;28;20195;-63
2021/10/15 05:40:47;;;;;;;1.40;1.30;;;18.50;74.50;;;;;;10533111;28;20219;-63
2021/10/15 05:46:09;;;;;;;2.87;1.30;;;18.50;74.50;;;;;;10534629;28;20208;-64
2021/10/15 05:51:36;;;;;;;2.00;1.30;;;18.60;74.50;;;;;;10533572;28;20223;-64
2021/10/15 05:57:05;;;;;;;1.67;1.10;;;18.60;74.50;;;;;;10510424;28;20192;-64
2021/10/15 06:02:32;;;;;;;1.63;1.27;;;18.60;74.50;;;;;;10508917;28;20708;-64
2021/10/15 06:19:41;;;;;;;2.87;1.43;;;18.60;74.30;;;;;;10522489;28;20212;-65
2021/10/15 06:25:04;;;;;;;1.47;1.10;;;18.60;74.30;;;;;;10491377;28;20289;-65
2021/10/15 06:30:27;;;;;;;2.53;1.33;;;18.60;74.30;;;;;;10499429;28;20597;-65
2021/10/15 06:35:49;;;;;;;2.33;1.17;;;18.70;74.40;;;;;;10524612;28;20203;-65
2021/10/15 06:41:12;;;;;;;1.97;1.20;;;18.70;74.60;;;;;;10507761;28;20223;-65
2021/10/15 06:46:35;;;;;;;1.30;1.20;;;18.70;74.50;;;;;;10494981;28;20204;-65
2021/10/15 06:51:57;;;;;;;1.60;1.10;;;18.70;74.50;;;;;;10497358;22;20228;-70
2021/10/15 06:57:19;;;;;;;1.53;1.27;;;18.70;74.60;;;;;;10430485;28;20201;-70
2021/10/15 07:02:43;;;;;;;3.40;1.27;;;18.70;74.60;;;;;;10431389;28;20218;-70
2021/10/15 07:08:05;;;;;;;2.40;1.03;;;18.70;74.60;;;;;;10424117;28;20228;-67
2021/10/15 07:13:27;;;;;;;2.40;1.20;;;18.70;74.60;;;;;;10409606;28;20245;-69
2021/10/15 07:18:51;;;;;;;1.57;1.00;;;18.80;74.80;;;;;;10440994;28;20201;-70
2021/10/15 07:24:13;;;;;;;2.07;1.00;;;18.70;74.50;;;;;;10430653;28;20229;-70
2021/10/15 07:29:35;;;;;;;1.63;1.10;;;18.80;74.70;;;;;;10439493;28;20225;-71
2021/10/15 07:34:59;;;;;;;2.80;1.30;;;18.80;74.80;;;;;;10426830;28;20205;-67
2021/10/15 07:40:21;;;;;;;2.23;1.27;;;18.70;75.10;;;;;;10420246;28;20220;-70
2021/10/15 07:45:43;;;;;;;3.03;1.40;;;18.80;75.10;;;;;;10417611;28;20692;-70
2021/10/15 07:51:07;;;;;;;2.27;1.10;;;18.80;74.70;;;;;;10409204;28;20256;-72
2021/10/15 07:56:32;;;;;;;2.07;1.00;;;18.80;74.90;;;;;;10431427;28;20207;-70
2021/10/15 08:01:54;;;;;;;2.07;1.13;;;18.80;75.10;;;;;;10411774;28;20635;-70
2021/10/15 08:07:18;;;;;;;2.33;1.07;;;18.80;75.10;;;;;;10415903;28;20715;-70
2021/10/15 08:12:41;;;;;;;3.30;1.23;;;18.80;75.10;;;;;;10415834;28;20217;-70
2021/10/15 08:18:03;;;;;;;2.30;1.30;;;18.80;75.20;;;;;;10422886;28;20193;-70
2021/10/15 08:23:28;;;;;;;1.83;1.07;;;18.80;75.30;;;;;;10427487;28;20209;-73
2021/10/15 08:28:57;;;;;;;2.47;1.03;;;18.80;75.30;;;;;;10432806;28;20228;-69
2021/10/15 08:34:19;;;;;;;2.50;1.00;;;18.80;75.20;;;;;;10418677;28;20197;-69
2021/10/15 08:39:42;;;;;;;1.43;0.80;;;18.80;75.30;;;;;;10429274;28;20213;-69
2021/10/15 08:45:06;;;;;;;1.67;0.80;;;18.80;75.30;;;;;;10422197;28;20657;-69
2021/10/15 08:50:29;;;;;;;1.70;0.90;;;18.80;75.40;;;;;;10422149;28;20230;-69
2021/10/15 08:55:52;;;;;;;1.40;0.67;;;18.80;75.30;;;;;;10428625;28;20625;-68
2021/10/15 09:01:15;;;;;;;1.17;0.90;;;18.80;75.30;;;;;;10418528;28;20218;-69
2021/10/15 09:06:39;;;;;;;1.20;0.90;;;18.80;75.30;;;;;;10425188;28;20665;-68
2021/10/15 09:12:09;;;;;;;0.73;0.60;;;18.80;75.30;;;;;;10421283;28;20217;-69
2021/10/15 09:17:35;;;;;;;2.07;0.90;;;18.80;75.20;;;;;;10414914;28;20273;-69
2021/10/15 09:22:57;;;;;;;2.10;0.70;;;18.80;75.20;;;;;;10445395;28;20228;-70
2021/10/15 09:28:22;;;;;;;1.97;1.10;;;18.80;75.20;;;;;;10421496;28;20596;-70
2021/10/15 09:33:54;;;;;;;0.67;0.60;;;18.80;75.20;;;;;;10414303;28;20213;-68
2021/10/15 09:39:26;;;;;;;0.93;0.60;;;18.80;75.10;;;;;;10413584;28;20194;-69
2021/10/15 09:44:50;;;;;;;1.20;0.60;;;18.90;75.10;;;;;;10418037;28;20201;-70
2021/10/15 09:50:14;;;;;;;2.73;0.80;;;18.90;75.20;;;;;;10419355;28;20578;-69
2021/10/15 09:55:38;;;;;;;1.20;0.70;;;18.80;75.10;;;;;;10433285;28;20569;-68
2021/10/15 10:01:01;;;;;;;0.70;0.70;;;18.90;75.20;;;;;;10414818;28;20214;-69
2021/10/15 10:06:23;;;;;;;1.60;0.80;;;18.90;75.10;;;;;;10413351;28;20692;-69
2021/10/15 10:11:46;;;;;;;1.07;0.70;;;18.90;75.10;;;;;;10411653;28;20230;-69
2021/10/15 10:17:13;;;;;;;2.23;0.80;;;18.80;75.00;;;;;;10438113;28;20193;-69
2021/10/15 10:22:37;;;;;;;2.60;0.73;;;18.90;75.10;;;;;;10410330;28;20217;-67
2021/10/15 10:28:12;;;;;;;1.50;0.60;;;18.90;75.20;;;;;;10413531;28;20217;-67
2021/10/15 10:33:52;;;;;;;1.10;0.80;;;18.90;75.10;;;;;;10412565;28;20218;-67
2021/10/15 10:39:28;;;;;;;2.50;0.90;;;19.00;74.70;;;;;;10411082;28;20569;-67
2021/10/15 10:45:09;;;;;;;0.57;0.50;;;19.00;74.40;;;;;;10411511;28;20201;-67
2021/10/15 10:50:33;;;;;;;0.80;0.53;;;19.00;74.10;;;;;;10423578;28;20229;-67
2021/10/15 10:55:55;;;;;;;0.90;0.70;;;19.00;74.30;;;;;;10431019;28;20197;-71
2021/10/15 11:01:21;;;;;;;3.53;1.10;;;19.00;74.30;;;;;;10435134;28;20220;-71
2021/10/15 11:06:58;;;;;;;2.73;0.63;;;18.90;74.40;;;;;;10434498;28;20264;-71
2021/10/15 11:12:22;;;;;;;1.30;0.60;;;18.90;74.40;;;;;;10410622;28;20589;-70
2021/10/15 11:17:47;;;;;;;1.20;0.83;;;18.90;74.60;;;;;;10425751;28;20660;-70
2021/10/15 11:23:11;;;;;;;1.20;0.60;;;18.90;74.70;;;;;;10410404;28;20221;-72
2021/10/15 11:28:34;;;;;;;2.53;0.87;;;18.80;74.80;;;;;;10426103;28;20221;-72
2021/10/15 11:34:08;;;;;;;0.97;0.60;;;18.80;74.80;;;;;;10427103;28;20683;-66
2021/10/15 11:39:31;;;;;;;2.20;0.97;;;18.80;74.80;;;;;;10414370;28;20212;-67
2021/10/15 11:44:53;;;;;;;1.07;0.70;;;18.90;75.20;;;;;;10418233;28;20669;-66
2021/10/15 11:50:38;;;;;;;1.93;0.77;;;18.90;74.90;;;;;;10422216;28;20593;-66
2021/10/15 11:56:04;;;;;;;1.17;0.60;;;19.00;74.60;;;;;;10422851;28;20981;-67
2021/10/15 12:01:27;;;;;;;1.33;0.60;;;19.00;74.60;;;;;;10430052;28;20225;-67
2021/10/15 12:06:51;;;;;;;1.07;0.60;;;19.00;74.40;;;;;;10416648;28;20643;-67
2021/10/15 12:12:15;;;;;;;1.80;0.77;;;19.10;74.50;;;;;;10428319;28;20224;-66
2021/10/15 12:17:37;;;;;;;1.33;0.60;;;19.10;74.40;;;;;;10424847;28;20205;-66
2021/10/15 12:23:02;;;;;;;1.53;0.67;;;19.00;74.30;;;;;;10410468;28;20217;-67
2021/10/15 12:28:33;;;;;;;0.90;0.67;;;19.10;74.30;;;;;;10412628;28;20232;-68
2021/10/15 12:34:08;;;;;;;1.27;0.50;;;19.10;74.30;;;;;;10413667;28;20237;-67
2021/10/15 12:39:30;;;;;;;1.50;0.73;;;19.10;74.30;;;;;;10409563;28;20595;-66
2021/10/15 12:45:04;;;;;;;1.80;0.70;;;19.10;74.40;;;;;;10411874;28;20202;-66
2021/10/15 12:50:28;;;;;;;1.83;0.70;;;19.10;74.40;;;;;;10412684;28;20744;-66
2021/10/15 12:55:53;;;;;;;2.33;0.77;;;19.10;74.40;;;;;;10431617;28;20209;-66
2021/10/15 13:01:22;;;;;;;2.30;0.90;;;19.10;74.40;;;;;;10448589;22;20232;-63
2021/10/15 13:06:44;;;;;;;1.63;0.90;;;19.10;74.30;;;;;;10421741;28;20198;-62
2021/10/15 13:12:06;;;;;;;2.43;0.70;;;19.10;74.20;;;;;;10440945;28;20216;-60
2021/10/15 13:17:30;;;;;;;4.27;0.83;;;19.10;74.20;;;;;;10418924;28;20212;-62
2021/10/15 13:22:53;;;;;;;2.67;1.13;;;19.10;74.00;;;;;;10418774;28;20212;-61
2021/10/15 13:28:15;;;;;;;2.37;1.10;;;19.10;74.10;;;;;;10426547;28;20224;-62
2021/10/15 13:33:39;;;;;;;4.70;0.73;;;19.10;74.10;;;;;;10426045;28;20197;-62
2021/10/15 13:39:03;;;;;;;3.13;0.80;;;19.10;74.10;;;;;;10413869;28;20217;-63
2021/10/15 13:44:50;;;;;;;1.90;0.90;;;19.10;74.10;;;;;;10411084;28;20216;-61
2021/10/15 13:50:14;;;;;;;2.17;1.17;;;19.10;74.00;;;;;;10417077;28;20228;-62
2021/10/15 13:55:42;;;;;;;3.07;1.20;;;19.10;74.00;;;;;;10410121;28;20197;-62
2021/10/15 14:01:08;;;;;;;4.57;1.20;;;19.10;74.30;;;;;;10430001;28;20214;-62
2021/10/15 14:06:31;;;;;;;3.87;0.80;;;19.10;74.00;;;;;;10413157;28;20347;-62
2021/10/15 14:11:54;;;;;;;1.23;0.50;;;19.10;74.00;;;;;;10423577;28;20638;-64
2021/10/15 14:17:16;;;;;;;3.03;0.80;;;19.10;74.00;;;;;;10438971;28;20647;-65
2021/10/15 14:22:39;;;;;;;2.20;0.97;;;19.10;74.00;;;;;;10434433;28;20217;-64
2021/10/15 14:28:03;;;;;;;1.73;0.90;;;19.00;73.90;;;;;;10440014;28;20229;-63
2021/10/15 14:33:25;;;;;;;3.40;1.10;;;19.00;74.00;;;;;;10442575;28;20722;-63
2021/10/15 14:38:49;;;;;;;3.33;0.87;;;19.10;74.10;;;;;;10443859;28;20236;-65
2021/10/15 14:44:11;;;;;;;3.23;1.53;;;19.10;74.10;;;;;;10442942;28;20197;-61
2021/10/15 14:49:33;;;;;;;5.57;1.40;;;19.10;74.00;;;;;;10443021;28;20216;-62
2021/10/15 14:54:57;;;;;;;3.67;1.53;;;19.10;74.00;;;;;;10416900;28;20202;-63
2021/10/15 15:00:19;;;;;;;4.60;1.30;;;19.10;74.00;;;;;;10438731;28;20220;-64
2021/10/15 15:05:41;;;;;;;4.17;1.40;;;19.10;74.00;;;;;;10442032;28;21030;-63
2021/10/15 15:11:06;;;;;;;3.10;0.90;;;19.10;74.00;;;;;;10440659;28;20221;-63
2021/10/15 15:16:28;;;;;;;4.40;1.17;;;19.10;74.00;;;;;;10449576;28;20662;-64
2021/10/15 15:21:52;;;;;;;3.40;1.20;;;19.10;73.90;;;;;;10448472;28;20574;-64
2021/10/15 15:27:16;;;;;;;2.70;1.00;;;19.10;73.80;;;;;;10438399;28;20220;-64
2021/10/15 15:32:38;;;;;;;2.47;1.50;;;19.10;73.70;;;;;;10449558;28;20196;-65
2021/10/15 15:38:01;;;;;;;2.77;0.77;;;19.10;73.60;;;;;;10422739;28;20222;-64
2021/10/15 15:43:25;;;;;;;2.37;0.97;;;19.10;73.60;;;;;;10408973;28;20682;-65
2021/10/15 15:48:47;;;;;;;2.13;1.10;;;19.10;73.50;;;;;;10433771;28;20212;-62
2021/10/15 15:54:09;;;;;;;2.27;0.77;;;19.10;73.60;;;;;;10441669;28;20197;-63
2021/10/15 15:59:32;;;;;;;3.03;1.17;;;19.10;73.60;;;;;;10412804;28;20224;-62
2021/10/15 16:04:55;;;;;;;4.17;1.30;;;19.10;73.60;;;;;;10410272;28;20217;-62
2021/10/15 16:10:17;;;;;;;2.43;1.03;;;19.00;73.50;;;;;;10414271;28;20217;-66
2021/10/15 16:15:43;;;;;;;6.00;1.43;;;19.10;73.60;;;;;;10450584;28;21176;-66
2021/10/15 16:21:06;;;;;;;3.00;1.10;;;19.10;73.60;;;;;;10426542;28;20796;-65
2021/10/15 16:26:28;;;;;;;1.70;0.90;;;19.10;73.60;;;;;;10406083;28;20197;-65
2021/10/15 16:31:53;;;;;;;1.87;1.00;;;19.10;73.50;;;;;;10407414;28;20662;-65
2021/10/15 16:37:15;;;;;;;2.50;1.07;;;19.10;73.60;;;;;;10409539;28;20206;-65
2021/10/15 16:42:38;;;;;;;2.23;1.20;;;19.00;73.40;;;;;;10408093;28;20201;-65
2021/10/15 16:48:02;;;;;;;1.87;0.90;;;19.10;73.40;;;;;;10408589;28;20698;-65
2021/10/15 16:53:24;;;;;;;2.73;1.17;;;19.00;73.40;;;;;;10445231;28;20197;-65
2021/10/15 16:58:47;;;;;;;1.67;1.10;;;19.00;73.30;;;;;;10454117;28;20777;-67
2021/10/15 17:04:10;;;;;;;2.13;1.13;;;19.00;73.30;;;;;;10452854;28;20208;-65
2021/10/15 17:09:34;;;;;;;2.27;1.00;;;19.00;73.30;;;;;;10452523;28;20221;-66
2021/10/15 17:14:56;;;;;;;3.10;1.43;;;19.00;73.30;;;;;;10454021;28;20303;-65
2021/10/15 17:20:19;;;;;;;2.13;1.10;;;19.00;73.20;;;;;;10453493;28;20213;-68
2021/10/15 17:25:43;;;;;;;2.97;1.07;;;19.00;73.20;;;;;;10436924;28;20571;-67
2021/10/15 17:31:05;;;;;;;2.10;1.10;;;19.10;73.20;;;;;;10421995;28;20386;-65
2021/10/15 17:36:29;;;;;;;2.63;1.30;;;19.10;73.10;;;;;;10450039;28;20197;-65
2021/10/15 17:41:51;;;;;;;2.60;0.90;;;19.10;73.10;;;;;;10452810;28;20220;-64
2021/10/15 17:47:13;;;;;;;1.73;1.13;;;19.10;73.00;;;;;;10451941;28;20197;-65
2021/10/15 17:52:37;;;;;;;1.87;1.03;;;19.10;73.00;;;;;;10417520;28;20715;-66
2021/10/15 17:57:59;;;;;;;2.17;0.80;;;19.10;73.00;;;;;;10419954;28;20217;-65
2021/10/15 18:03:23;;;;;;;3.57;1.10;;;19.10;73.00;;;;;;10432225;28;20595;-66
2021/10/15 18:08:46;;;;;;;1.53;0.90;;;19.10;73.00;;;;;;10408169;28;20224;-66
2021/10/15 18:14:08;;;;;;;2.90;1.20;;;19.00;73.10;;;;;;10405617;28;20232;-66
2021/10/15 18:19:31;;;;;;;2.27;1.03;;;19.00;73.10;;;;;;10443388;28;20300;-65
2021/10/15 18:24:54;;;;;;;2.10;1.10;;;19.10;73.20;;;;;;10437579;28;20197;-66
2021/10/15 18:30:21;;;;;;;3.47;1.07;;;19.10;73.20;;;;;;10445710;28;20224;-66
2021/10/15 18:35:43;;;;;;;2.60;1.00;;;19.10;73.20;;;;;;10445768;28;20189;-65
2021/10/15 18:41:07;;;;;;;2.33;1.30;;;19.10;73.30;;;;;;10410499;28;20233;-65
2021/10/15 18:46:29;;;;;;;2.53;1.00;;;19.10;73.30;;;;;;10404663;28;20202;-66
2021/10/15 18:51:52;;;;;;;2.03;1.07;;;19.10;73.30;;;;;;10413077;28;20594;-65
2021/10/15 18:57:15;;;;;;;2.07;1.10;;;19.10;73.30;;;;;;10444351;28;20193;-65
2021/10/15 19:02:37;;;;;;;3.17;1.13;;;19.10;73.30;;;;;;10434573;28;20206;-65
2021/10/15 19:07:59;;;;;;;1.57;0.83;;;19.00;73.20;;;;;;10418879;28;20228;-66
2021/10/15 19:13:26;;;;;;;1.97;0.80;;;19.00;73.20;;;;;;10443600;28;20213;-65
2021/10/15 19:18:48;;;;;;;3.73;1.20;;;19.10;73.30;;;;;;10443168;28;20759;-65
2021/10/15 19:24:11;;;;;;;2.53;1.13;;;19.00;73.20;;;;;;10443720;28;20200;-66
2021/10/15 19:29:34;;;;;;;3.53;1.00;;;19.10;73.30;;;;;;10444157;28;20220;-65
2021/10/15 19:34:56;;;;;;;2.30;1.10;;;19.00;73.20;;;;;;10451864;22;20248;-68
2021/10/15 19:40:19;;;;;;;2.53;1.13;;;19.10;73.30;;;;;;10407093;28;20245;-68
2021/10/15 19:45:42;;;;;;;1.80;0.87;;;19.10;73.30;;;;;;10406805;28;20201;-67
2021/10/15 19:51:04;;;;;;;2.70;0.90;;;19.10;73.20;;;;;;10406903;28;20325;-68
2021/10/15 19:56:26;;;;;;;3.37;1.40;;;19.10;73.10;;;;;;10411177;28;20194;-68
2021/10/15 20:01:50;;;;;;;2.73;1.20;;;19.10;73.00;;;;;;10411566;28;20209;-68
2021/10/15 20:07:12;;;;;;;3.60;1.20;;;19.10;72.90;;;;;;10413661;28;20200;-68
2021/10/15 20:12:34;;;;;;;1.80;1.00;;;19.10;72.90;;;;;;10413216;28;20214;-68
2021/10/15 20:17:57;;;;;;;2.27;1.13;;;19.00;72.80;;;;;;10416164;28;20293;-68
2021/10/15 20:23:20;;;;;;;2.50;1.10;;;19.00;72.70;;;;;;10415393;28;20205;-68
2021/10/15 20:28:42;;;;;;;2.63;1.30;;;19.00;72.60;;;;;;10415408;28;20232;-68
2021/10/15 20:34:05;;;;;;;2.10;1.07;;;19.10;72.60;;;;;;10415190;28;20197;-69
2021/10/15 20:39:28;;;;;;;2.57;1.03;;;19.00;72.50;;;;;;10416209;28;20212;-68
2021/10/15 20:44:50;;;;;;;2.73;1.40;;;19.10;72.50;;;;;;10414453;28;20205;-68
2021/10/15 20:50:13;;;;;;;2.67;1.10;;;19.00;72.40;;;;;;10412832;28;20221;-68
2021/10/15 20:55:35;;;;;;;2.43;1.27;;;19.00;72.50;;;;;;10412834;28;20583;-68
2021/10/15 21:00:57;;;;;;;2.63;1.23;;;19.00;72.50;;;;;;10413809;28;20202;-68
2021/10/15 21:06:21;;;;;;;3.50;1.43;;;19.00;72.50;;;;;;10410309;28;20205;-68
2021/10/15 21:11:43;;;;;;;2.87;1.30;;;19.00;72.50;;;;;;10411287;28;20225;-68
2021/10/15 21:17:05;;;;;;;2.10;1.20;;;19.00;72.40;;;;;;10411175;28;20193;-68
2021/10/15 21:22:29;;;;;;;2.20;1.20;;;18.90;72.40;;;;;;10409526;28;20206;-68
2021/10/15 21:27:51;;;;;;;3.33;1.30;;;18.90;72.30;;;;;;10410891;28;20222;-67
2021/10/15 21:33:13;;;;;;;2.90;1.33;;;18.90;72.30;;;;;;10411599;28;20217;-67
2021/10/15 21:38:37;;;;;;;3.87;1.03;;;18.90;72.20;;;;;;10411738;28;20594;-67
2021/10/15 21:43:59;;;;;;;2.47;1.40;;;18.90;72.20;;;;;;10412215;28;20272;-68
2021/10/15 21:49:21;;;;;;;2.80;1.30;;;18.80;72.10;;;;;;10411686;28;20217;-67
2021/10/15 21:54:45;;;;;;;2.80;1.30;;;18.80;72.10;;;;;;10412450;28;20201;-68
2021/10/15 22:00:13;;;;;;;3.10;1.60;;;18.80;71.80;;;;;;10411143;28;20206;-68
2021/10/15 22:05:35;;;;;;;2.73;1.30;;;18.80;71.00;;;;;;10411648;28;20181;-67
2021/10/15 22:10:59;;;;;;;3.07;1.37;;;18.80;71.10;;;;;;10408360;28;20228;-68
2021/10/15 22:16:21;;;;;;;3.27;1.07;;;18.80;71.10;;;;;;10410966;28;20204;-68
2021/10/15 22:21:43;;;;;;;3.20;1.43;;;18.80;70.80;;;;;;10407489;28;20729;-68
2021/10/15 22:27:07;;;;;;;4.43;1.47;;;18.80;70.70;;;;;;10403163;28;20201;-68
2021/10/15 22:32:29;;;;;;;3.33;1.17;;;18.80;70.20;;;;;;10409093;28;20217;-68
2021/10/15 22:37:51;;;;;;;3.50;1.30;;;18.70;70.10;;;;;;10448658;28;20559;-68
2021/10/15 22:43:14;;;;;;;3.67;1.20;;;18.70;70.20;;;;;;10433181;28;20705;-68
2021/10/15 22:48:37;;;;;;;2.30;1.13;;;18.70;70.30;;;;;;10409367;28;20218;-68
2021/10/15 22:54:00;;;;;;;2.03;1.00;;;18.70;71.10;;;;;;10409047;28;20198;-67
2021/10/15 22:59:23;;;;;;;3.37;1.30;;;18.70;71.80;;;;;;10409122;28;20210;-67
2021/10/15 23:04:46;;;;;;;2.13;1.03;;;18.80;72.10;;;;;;10407184;28;20201;-68
2021/10/15 23:10:09;;;;;;;2.53;1.13;;;18.80;72.20;;;;;;10407792;28;20226;-68
2021/10/15 23:15:32;;;;;;;2.83;1.43;;;18.80;72.20;;;;;;10408060;28;20740;-67
2021/10/15 23:20:54;;;;;;;2.13;1.17;;;18.80;72.20;;;;;;10407143;28;20221;-67
2021/10/15 23:26:17;;;;;;;1.97;1.13;;;18.80;72.10;;;;;;10408708;28;20205;-68
2021/10/15 23:31:40;;;;;;;1.97;1.13;;;18.80;72.00;;;;;;10408177;28;20221;-67
2021/10/15 23:37:03;;;;;;;2.67;1.30;;;18.70;72.00;;;;;;10414812;28;20225;-68
2021/10/15 23:42:25;;;;;;;2.53;1.20;;;18.80;71.90;;;;;;10415773;28;20218;-67
2021/10/15 23:47:48;;;;;;;1.43;0.83;;;18.80;71.90;;;;;;10415844;28;20202;-67
2021/10/15 23:53:11;;;;;;;2.70;0.97;;;18.70;71.90;;;;;;10417607;28;20214;-68
2021/10/15 23:58:33;;;;;;;2.00;0.90;;;18.80;71.90;;;;;;10429090;28;20218;-67
